createdAt,value
2023-02-21T00:00:56.627Z,9.02
2023-02-21T00:01:56.652Z,9.04
2023-02-21T00:02:56.615Z,9.02
2023-02-21T00:03:56.614Z,9.08
2023-02-21T00:04:56.638Z,8.94
2023-02-21T00:05:56.595Z,8.99
2023-02-21T00:06:56.589Z,8.95
2023-02-21T00:07:56.581Z,8.92
2023-02-21T00:08:56.588Z,9.02
2023-02-21T00:09:56.595Z,9.00
2023-02-21T00:10:56.554Z,8.95
2023-02-21T00:11:56.545Z,8.95
2023-02-21T00:12:56.549Z,8.92
2023-02-21T00:13:56.534Z,8.95
2023-02-21T00:14:56.552Z,8.92
2023-02-21T00:15:56.515Z,8.99
2023-02-21T00:16:56.517Z,9.04
2023-02-21T00:17:56.504Z,9.03
2023-02-21T00:18:56.501Z,8.99
2023-02-21T00:19:56.514Z,9.02
2023-02-21T00:20:56.485Z,8.99
2023-02-21T00:21:56.467Z,8.94
2023-02-21T00:22:56.465Z,8.92
2023-02-21T00:23:56.460Z,8.87
2023-02-21T00:24:56.479Z,8.92
2023-02-21T00:25:56.453Z,9.08
2023-02-21T00:26:56.432Z,8.99
2023-02-21T00:27:56.426Z,9.04
2023-02-21T00:28:56.419Z,8.99
2023-02-21T00:29:56.437Z,8.99
2023-02-21T00:30:56.479Z,9.00
2023-02-21T00:31:56.396Z,9.06
2023-02-21T00:32:56.536Z,8.99
2023-02-21T00:33:56.383Z,8.92
2023-02-21T00:34:56.395Z,8.92
2023-02-21T00:35:56.359Z,8.95
2023-02-21T00:36:56.363Z,8.89
2023-02-21T00:37:56.346Z,8.94
2023-02-21T00:38:56.361Z,9.00
2023-02-21T00:39:56.355Z,8.88
2023-02-21T00:40:56.361Z,9.00
2023-02-21T00:41:56.326Z,8.88
2023-02-21T00:42:56.308Z,8.94
2023-02-21T00:43:56.305Z,8.91
2023-02-21T00:44:56.296Z,8.92
2023-02-21T00:45:56.334Z,8.87
2023-02-21T00:46:56.285Z,9.02
2023-02-21T00:47:56.275Z,8.92
2023-02-21T00:48:56.269Z,8.97
2023-02-21T00:49:56.251Z,8.92
2023-02-21T00:50:57.272Z,8.85
2023-02-21T00:51:56.251Z,8.88
2023-02-21T00:52:56.235Z,8.99
2023-02-21T00:53:56.224Z,8.91
2023-02-21T00:54:56.220Z,8.89
2023-02-21T00:55:56.249Z,8.92
2023-02-21T00:56:56.201Z,8.95
2023-02-21T00:57:56.198Z,8.92
2023-02-21T00:58:56.198Z,8.89
2023-02-21T00:59:56.188Z,8.85
2023-02-21T01:00:56.237Z,8.88
2023-02-21T01:01:56.162Z,8.95
2023-02-21T01:02:56.157Z,8.99
2023-02-21T01:03:56.218Z,8.89
2023-02-21T01:04:56.144Z,8.95
2023-02-21T01:05:56.161Z,8.99
2023-02-21T01:06:56.129Z,8.89
2023-02-21T01:07:56.116Z,8.99
2023-02-21T01:08:56.118Z,8.97
2023-02-21T01:09:56.108Z,8.92
2023-02-21T01:10:56.136Z,8.89
2023-02-21T01:11:56.097Z,8.91
2023-02-21T01:12:56.089Z,8.85
2023-02-21T01:13:56.078Z,8.91
2023-02-21T01:14:56.077Z,8.89
2023-02-21T01:15:56.157Z,8.85
2023-02-21T01:16:59.402Z,8.85
2023-02-21T01:17:57.051Z,8.87
2023-02-21T01:18:56.047Z,8.84
2023-02-21T01:19:56.042Z,8.94
2023-02-21T01:20:56.060Z,8.88
2023-02-21T01:21:56.050Z,8.89
2023-02-21T01:22:56.015Z,8.85
2023-02-21T01:23:56.003Z,8.81
2023-02-21T01:24:56.001Z,8.79
2023-02-21T01:25:56.024Z,8.91
2023-02-21T01:26:55.981Z,8.82
2023-02-21T01:27:55.984Z,8.76
2023-02-21T01:28:55.969Z,8.79
2023-02-21T01:29:55.979Z,8.64
2023-02-21T01:30:55.994Z,8.76
2023-02-21T01:31:55.946Z,8.76
2023-02-21T01:32:55.939Z,8.78
2023-02-21T01:33:55.943Z,8.67
2023-02-21T01:34:55.929Z,8.70
2023-02-21T01:35:55.945Z,8.67
2023-02-21T01:36:55.913Z,8.70
2023-02-21T01:37:55.909Z,8.73
2023-02-21T01:38:55.895Z,8.73
2023-02-21T01:39:55.891Z,8.73
2023-02-21T01:40:55.907Z,8.78
2023-02-21T01:41:55.875Z,8.71
2023-02-21T01:42:55.861Z,8.56
2023-02-21T01:43:55.860Z,8.71
2023-02-21T01:44:55.847Z,8.69
2023-02-21T01:45:55.916Z,8.61
2023-02-21T01:46:55.832Z,8.73
2023-02-21T01:47:55.832Z,8.71
2023-02-21T01:48:55.815Z,8.78
2023-02-21T01:49:55.821Z,8.69
2023-02-21T01:50:55.841Z,8.74
2023-02-21T01:51:55.799Z,8.67
2023-02-21T01:52:55.790Z,8.63
2023-02-21T01:53:55.789Z,8.64
2023-02-21T01:54:55.775Z,8.63
2023-02-21T01:55:55.795Z,8.76
2023-02-21T01:56:55.755Z,8.69
2023-02-21T01:57:55.751Z,8.66
2023-02-21T01:58:55.739Z,8.61
2023-02-21T01:59:55.736Z,8.71
2023-02-21T02:00:55.747Z,8.66
2023-02-21T02:01:55.717Z,8.70
2023-02-21T02:02:55.716Z,8.70
2023-02-21T02:03:55.703Z,8.63
2023-02-21T02:04:55.698Z,8.66
2023-02-21T02:05:55.685Z,8.58
2023-02-21T02:06:55.705Z,8.67
2023-02-21T02:07:55.687Z,8.60
2023-02-21T02:08:55.659Z,8.67
2023-02-21T02:09:55.651Z,8.73
2023-02-21T02:10:55.644Z,8.78
2023-02-21T02:11:55.664Z,8.63
2023-02-21T02:12:55.633Z,8.66
2023-02-21T02:13:55.632Z,8.66
2023-02-21T02:14:55.623Z,8.73
2023-02-21T02:15:55.672Z,8.71
2023-02-21T02:16:55.622Z,8.64
2023-02-21T02:17:55.586Z,8.67
2023-02-21T02:18:55.588Z,8.74
2023-02-21T02:19:55.574Z,8.69
2023-02-21T02:20:55.565Z,8.69
2023-02-21T02:21:55.599Z,8.66
2023-02-21T02:22:55.560Z,8.61
2023-02-21T02:23:55.552Z,8.64
2023-02-21T02:24:55.570Z,8.56
2023-02-21T02:25:55.537Z,8.66
2023-02-21T02:26:55.548Z,8.61
2023-02-21T02:27:55.516Z,8.76
2023-02-21T02:28:55.519Z,8.61
2023-02-21T02:29:55.501Z,8.60
2023-02-21T02:30:55.510Z,8.61
2023-02-21T02:31:55.593Z,8.60
2023-02-21T02:32:55.481Z,8.56
2023-02-21T02:33:55.473Z,8.53
2023-02-21T02:34:55.469Z,8.70
2023-02-21T02:35:55.459Z,8.52
2023-02-21T02:36:55.480Z,8.56
2023-02-21T02:37:55.445Z,8.52
2023-02-21T02:38:55.439Z,8.53
2023-02-21T02:39:55.438Z,8.64
2023-02-21T02:40:55.420Z,8.52
2023-02-21T02:41:55.432Z,8.53
2023-02-21T02:42:55.408Z,8.58
2023-02-21T02:43:55.400Z,8.51
2023-02-21T02:44:55.386Z,8.60
2023-02-21T02:45:55.379Z,8.51
2023-02-21T02:46:55.398Z,8.51
2023-02-21T02:47:55.367Z,8.55
2023-02-21T02:48:55.358Z,8.61
2023-02-21T02:49:55.361Z,8.56
2023-02-21T02:50:55.344Z,8.46
2023-02-21T02:51:55.354Z,8.51
2023-02-21T02:52:55.326Z,8.45
2023-02-21T02:53:55.306Z,8.56
2023-02-21T02:54:55.326Z,8.61
2023-02-21T02:55:55.304Z,8.61
2023-02-21T02:56:55.317Z,8.53
2023-02-21T02:57:55.274Z,8.56
2023-02-21T02:58:56.267Z,8.45
2023-02-21T02:59:55.295Z,8.49
2023-02-21T03:00:55.258Z,8.46
2023-02-21T03:01:55.329Z,8.55
2023-02-21T03:02:55.244Z,8.51
2023-02-21T03:03:55.300Z,8.52
2023-02-21T03:04:55.224Z,8.51
2023-02-21T03:05:55.229Z,8.42
2023-02-21T03:06:55.228Z,8.49
2023-02-21T03:07:55.198Z,8.46
2023-02-21T03:08:55.191Z,8.51
2023-02-21T03:09:55.182Z,8.42
2023-02-21T03:10:55.173Z,8.53
2023-02-21T03:11:55.189Z,8.46
2023-02-21T03:12:55.162Z,8.48
2023-02-21T03:13:55.153Z,8.48
2023-02-21T03:14:55.147Z,8.45
2023-02-21T03:15:55.153Z,8.49
2023-02-21T03:16:55.166Z,8.48
2023-02-21T03:17:55.112Z,8.45
2023-02-21T03:18:55.115Z,8.45
2023-02-21T03:19:55.105Z,8.33
2023-02-21T03:20:55.105Z,8.36
2023-02-21T03:21:55.118Z,8.42
2023-02-21T03:22:55.172Z,8.41
2023-02-21T03:23:55.075Z,8.34
2023-02-21T03:24:55.069Z,8.38
2023-02-21T03:25:55.061Z,8.33
2023-02-21T03:26:55.052Z,8.34
2023-02-21T03:27:55.081Z,8.30
2023-02-21T03:28:55.036Z,8.41
2023-02-21T03:29:55.029Z,8.28
2023-02-21T03:30:55.109Z,8.38
2023-02-21T03:31:55.140Z,8.33
2023-02-21T03:32:55.013Z,8.36
2023-02-21T03:33:55.001Z,8.44
2023-02-21T03:34:55.000Z,8.34
2023-02-21T03:35:54.990Z,8.28
2023-02-21T03:36:54.987Z,8.30
2023-02-21T03:37:54.990Z,8.26
2023-02-21T03:38:54.958Z,8.36
2023-02-21T03:39:54.956Z,8.34
2023-02-21T03:40:54.948Z,8.28
2023-02-21T03:41:54.938Z,8.23
2023-02-21T03:42:54.962Z,8.27
2023-02-21T03:43:54.925Z,8.31
2023-02-21T03:44:54.929Z,8.30
2023-02-21T03:45:54.910Z,8.37
2023-02-21T03:46:54.949Z,8.30
2023-02-21T03:47:54.919Z,8.33
2023-02-21T03:48:54.883Z,8.36
2023-02-21T03:49:54.923Z,8.28
2023-02-21T03:50:54.865Z,8.34
2023-02-21T03:51:54.857Z,8.37
2023-02-21T03:52:54.875Z,8.42
2023-02-21T03:53:54.837Z,8.27
2023-02-21T03:54:54.843Z,8.30
2023-02-21T03:55:54.831Z,8.34
2023-02-21T03:56:54.820Z,8.28
2023-02-21T03:57:54.847Z,8.36
2023-02-21T03:58:54.799Z,8.33
2023-02-21T03:59:55.802Z,8.34
2023-02-21T04:00:54.875Z,8.33
2023-02-21T04:01:54.873Z,8.36
2023-02-21T04:02:54.808Z,8.28
2023-02-21T04:03:54.777Z,8.30
2023-02-21T04:04:54.768Z,8.31
2023-02-21T04:05:54.778Z,8.26
2023-02-21T04:06:54.750Z,8.30
2023-02-21T04:07:54.774Z,8.24
2023-02-21T04:08:54.774Z,8.27
2023-02-21T04:09:54.733Z,8.33
2023-02-21T04:10:54.721Z,8.30
2023-02-21T04:11:54.713Z,8.28
2023-02-21T04:12:54.740Z,8.28
2023-02-21T04:13:54.701Z,8.37
2023-02-21T04:14:54.694Z,8.38
2023-02-21T04:15:54.684Z,8.44
2023-02-21T04:16:54.677Z,8.28
2023-02-21T04:17:54.708Z,8.33
2023-02-21T04:18:54.663Z,8.27
2023-02-21T04:19:54.656Z,8.34
2023-02-21T04:20:54.648Z,8.37
2023-02-21T04:21:54.649Z,8.41
2023-02-21T04:23:03.184Z,8.33
2023-02-21T04:23:56.635Z,8.38
2023-02-21T04:24:54.617Z,8.34
2023-02-21T04:25:54.614Z,8.27
2023-02-21T04:26:54.602Z,8.37
2023-02-21T04:27:54.626Z,8.30
2023-02-21T04:28:54.582Z,8.28
2023-02-21T04:29:54.573Z,8.20
2023-02-21T04:30:54.572Z,8.33
2023-02-21T04:31:54.656Z,8.38
2023-02-21T04:32:54.580Z,8.31
2023-02-21T04:34:05.758Z,8.30
2023-02-21T04:34:56.544Z,8.41
2023-02-21T04:35:54.535Z,8.36
2023-02-21T04:36:54.531Z,8.34
2023-02-21T04:37:54.538Z,8.34
2023-02-21T04:38:54.509Z,8.34
2023-02-21T04:39:54.507Z,8.27
2023-02-21T04:40:54.502Z,8.37
2023-02-21T04:41:54.487Z,8.24
2023-02-21T04:42:54.511Z,8.31
2023-02-21T04:43:54.473Z,8.30
2023-02-21T04:45:00.079Z,8.33
2023-02-21T04:45:56.509Z,8.37
2023-02-21T04:46:54.456Z,8.41
2023-02-21T04:47:54.464Z,8.38
2023-02-21T04:48:54.453Z,8.34
2023-02-21T04:49:54.436Z,8.38
2023-02-21T04:50:57.303Z,8.41
2023-02-21T04:51:55.418Z,8.49
2023-02-21T04:52:54.433Z,8.38
2023-02-21T04:53:54.418Z,8.38
2023-02-21T04:54:54.401Z,8.45
2023-02-21T04:55:54.382Z,8.36
2023-02-21T04:56:54.430Z,8.42
2023-02-21T04:57:54.401Z,8.37
2023-02-21T04:58:54.359Z,8.46
2023-02-21T04:59:54.352Z,8.44
2023-02-21T05:00:54.433Z,8.42
2023-02-21T05:01:54.341Z,8.44
2023-02-21T05:02:54.356Z,8.49
2023-02-21T05:03:54.337Z,8.45
2023-02-21T05:04:54.394Z,8.42
2023-02-21T05:05:54.307Z,8.41
2023-02-21T05:06:54.298Z,8.46
2023-02-21T05:07:54.330Z,8.46
2023-02-21T05:08:54.300Z,8.49
2023-02-21T05:09:54.277Z,8.51
2023-02-21T05:10:54.279Z,8.45
2023-02-21T05:11:54.275Z,8.48
2023-02-21T05:12:54.291Z,8.44
2023-02-21T05:13:54.256Z,8.44
2023-02-21T05:14:54.248Z,8.46
2023-02-21T05:15:54.232Z,8.45
2023-02-21T05:16:54.330Z,8.44
2023-02-21T05:17:54.243Z,8.41
2023-02-21T05:18:54.220Z,8.41
2023-02-21T05:19:54.210Z,8.44
2023-02-21T05:20:54.200Z,8.44
2023-02-21T05:21:54.201Z,8.44
2023-02-21T05:22:55.958Z,8.41
2023-02-21T05:23:54.178Z,8.42
2023-02-21T05:24:54.173Z,8.38
2023-02-21T05:25:54.160Z,8.42
2023-02-21T05:26:54.145Z,8.48
2023-02-21T05:27:54.171Z,8.38
2023-02-21T05:28:54.138Z,8.42
2023-02-21T05:29:54.126Z,8.37
2023-02-21T05:30:54.216Z,8.44
2023-02-21T05:31:54.135Z,8.38
2023-02-21T05:32:54.132Z,8.31
2023-02-21T05:33:54.095Z,8.38
2023-02-21T05:34:54.147Z,8.46
2023-02-21T05:35:54.091Z,8.28
2023-02-21T05:36:54.078Z,8.23
2023-02-21T05:37:54.095Z,8.24
2023-02-21T05:38:54.093Z,8.34
2023-02-21T05:39:54.049Z,8.38
2023-02-21T05:40:54.049Z,8.31
2023-02-21T05:41:54.042Z,8.36
2023-02-21T05:42:54.057Z,8.38
2023-02-21T05:43:54.034Z,8.33
2023-02-21T05:44:54.019Z,8.26
2023-02-21T05:45:54.066Z,8.34
2023-02-21T05:46:54.004Z,8.30
2023-02-21T05:47:54.021Z,8.23
2023-02-21T05:48:53.992Z,8.28
2023-02-21T05:49:53.982Z,8.36
2023-02-21T05:50:53.967Z,8.27
2023-02-21T05:51:53.960Z,8.27
2023-02-21T05:52:53.979Z,8.27
2023-02-21T05:53:53.985Z,8.24
2023-02-21T05:54:53.936Z,8.31
2023-02-21T05:55:53.933Z,8.37
2023-02-21T05:56:53.908Z,8.24
2023-02-21T05:57:54.937Z,8.31
2023-02-21T05:58:53.901Z,8.33
2023-02-21T05:59:53.900Z,8.30
2023-02-21T06:00:53.893Z,8.36
2023-02-21T06:01:53.878Z,8.27
2023-02-21T06:02:53.900Z,8.28
2023-02-21T06:03:53.908Z,8.38
2023-02-21T06:04:53.863Z,8.31
2023-02-21T06:05:53.840Z,8.38
2023-02-21T06:06:53.836Z,8.41
2023-02-21T06:07:53.853Z,8.24
2023-02-21T06:08:53.825Z,8.27
2023-02-21T06:09:53.816Z,8.28
2023-02-21T06:10:53.806Z,8.30
2023-02-21T06:11:53.801Z,8.30
2023-02-21T06:12:53.831Z,8.28
2023-02-21T06:13:53.784Z,8.26
2023-02-21T06:14:53.778Z,8.30
2023-02-21T06:15:53.770Z,8.28
2023-02-21T06:16:53.759Z,8.33
2023-02-21T06:17:53.782Z,8.30
2023-02-21T06:18:53.747Z,8.27
2023-02-21T06:19:53.734Z,8.31
2023-02-21T06:20:53.733Z,8.24
2023-02-21T06:21:53.725Z,8.26
2023-02-21T06:22:53.744Z,8.27
2023-02-21T06:23:53.731Z,8.28
2023-02-21T06:24:56.159Z,8.33
2023-02-21T06:25:53.696Z,8.28
2023-02-21T06:26:53.706Z,8.28
2023-02-21T06:27:53.709Z,8.38
2023-02-21T06:28:53.681Z,8.30
2023-02-21T06:29:53.692Z,8.34
2023-02-21T06:30:53.760Z,8.31
2023-02-21T06:31:53.653Z,8.37
2023-02-21T06:32:54.683Z,8.38
2023-02-21T06:33:53.649Z,8.27
2023-02-21T06:34:53.640Z,8.28
2023-02-21T06:35:53.652Z,8.20
2023-02-21T06:36:53.634Z,8.30
2023-02-21T06:37:53.614Z,8.36
2023-02-21T06:38:53.641Z,8.36
2023-02-21T06:39:53.599Z,8.24
2023-02-21T06:40:53.594Z,8.34
2023-02-21T06:41:53.603Z,8.44
2023-02-21T06:42:53.578Z,8.28
2023-02-21T06:43:53.599Z,8.41
2023-02-21T06:44:53.577Z,8.37
2023-02-21T06:45:53.637Z,8.41
2023-02-21T06:46:53.543Z,8.41
2023-02-21T06:47:53.538Z,8.42
2023-02-21T06:48:53.568Z,8.33
2023-02-21T06:49:53.529Z,8.41
2023-02-21T06:50:53.520Z,8.41
2023-02-21T06:51:53.513Z,8.38
2023-02-21T06:52:53.502Z,8.44
2023-02-21T06:53:53.529Z,8.41
2023-02-21T06:54:53.496Z,8.38
2023-02-21T06:55:53.481Z,8.34
2023-02-21T06:56:53.476Z,8.31
2023-02-21T06:57:53.462Z,8.33
2023-02-21T06:58:53.481Z,8.44
2023-02-21T06:59:53.448Z,8.44
2023-02-21T07:00:53.448Z,8.48
2023-02-21T07:01:53.464Z,8.46
2023-02-21T07:02:53.428Z,8.49
2023-02-21T07:03:53.455Z,8.37
2023-02-21T07:04:53.450Z,8.51
2023-02-21T07:05:53.413Z,8.51
2023-02-21T07:06:53.407Z,8.38
2023-02-21T07:07:53.385Z,8.45
2023-02-21T07:08:53.418Z,8.44
2023-02-21T07:09:53.398Z,8.42
2023-02-21T07:10:53.356Z,8.46
2023-02-21T07:11:53.352Z,8.51
2023-02-21T07:12:53.348Z,8.46
2023-02-21T07:13:53.382Z,8.48
2023-02-21T07:14:53.345Z,8.48
2023-02-21T07:15:53.341Z,8.51
2023-02-21T07:16:53.350Z,8.48
2023-02-21T07:17:53.310Z,8.45
2023-02-21T07:18:53.332Z,8.38
2023-02-21T07:19:53.297Z,8.48
2023-02-21T07:20:53.284Z,8.52
2023-02-21T07:21:53.272Z,8.49
2023-02-21T07:22:53.272Z,8.58
2023-02-21T07:23:53.293Z,8.49
2023-02-21T07:24:53.267Z,8.60
2023-02-21T07:25:53.244Z,8.61
2023-02-21T07:26:53.238Z,8.63
2023-02-21T07:27:53.230Z,8.49
2023-02-21T07:28:53.331Z,8.52
2023-02-21T07:29:53.217Z,8.64
2023-02-21T07:30:53.249Z,8.60
2023-02-21T07:31:53.292Z,8.58
2023-02-21T07:33:39.279Z,8.66
2023-02-21T07:34:39.273Z,8.78
2023-02-21T07:35:39.272Z,8.53
2023-02-21T07:36:40.332Z,8.60
2023-02-21T07:37:39.261Z,8.56
2023-02-21T07:38:39.273Z,8.51
2023-02-21T07:39:39.237Z,8.61
2023-02-21T07:40:39.221Z,8.60
2023-02-21T07:41:39.215Z,8.60
2023-02-21T07:42:39.218Z,8.73
2023-02-21T07:43:39.332Z,8.69
2023-02-21T07:44:39.187Z,8.67
2023-02-21T07:45:39.186Z,8.71
2023-02-21T07:46:40.373Z,8.61
2023-02-21T07:47:41.316Z,8.63
2023-02-21T07:48:40.326Z,8.76
2023-02-21T07:49:41.292Z,8.79
2023-02-21T07:50:40.288Z,8.73
2023-02-21T07:51:40.281Z,8.69
2023-02-21T07:52:40.271Z,8.74
2023-02-21T07:53:40.301Z,8.79
2023-02-21T07:54:40.259Z,8.73
2023-02-21T07:55:40.248Z,8.82
2023-02-21T07:56:40.236Z,8.88
2023-02-21T07:57:40.232Z,8.84
2023-02-21T07:58:40.264Z,8.89
2023-02-21T07:59:40.214Z,8.94
2023-02-21T08:00:40.678Z,8.84
2023-02-21T08:01:41.224Z,8.89
2023-02-21T08:02:40.222Z,8.92
2023-02-21T08:03:40.219Z,9.02
2023-02-21T08:04:40.238Z,9.00
2023-02-21T08:05:40.177Z,9.06
2023-02-21T08:06:40.167Z,9.16
2023-02-21T08:07:40.168Z,9.16
2023-02-21T08:08:40.179Z,9.23
2023-02-21T08:09:40.140Z,9.14
2023-02-21T08:10:40.128Z,9.18
2023-02-21T08:11:40.123Z,9.25
2023-02-21T08:12:40.123Z,9.22
2023-02-21T08:13:40.141Z,9.25
2023-02-21T08:14:40.126Z,9.21
2023-02-21T08:15:40.106Z,9.19
2023-02-21T08:16:40.160Z,9.28
2023-02-21T08:17:40.078Z,9.31
2023-02-21T08:18:40.107Z,9.28
2023-02-21T08:19:40.068Z,9.26
2023-02-21T08:20:40.061Z,9.26
2023-02-21T08:21:40.043Z,9.21
2023-02-21T08:22:40.035Z,9.19
2023-02-21T08:23:40.060Z,9.18
2023-02-21T08:24:40.020Z,9.23
2023-02-21T08:25:40.040Z,9.22
2023-02-21T08:26:40.053Z,9.31
2023-02-21T08:27:40.010Z,9.29
2023-02-21T08:28:40.030Z,9.41
2023-02-21T08:29:39.993Z,9.47
2023-02-21T08:30:39.999Z,9.43
2023-02-21T08:31:40.030Z,9.54
2023-02-21T08:32:39.961Z,9.54
2023-02-21T08:33:39.995Z,9.65
2023-02-21T08:34:39.953Z,9.56
2023-02-21T08:35:39.990Z,9.59
2023-02-21T08:36:39.933Z,9.59
2023-02-21T08:37:39.926Z,9.66
2023-02-21T08:38:39.942Z,9.79
2023-02-21T08:39:39.918Z,9.83
2023-02-21T08:40:39.905Z,9.72
2023-02-21T08:41:39.908Z,9.72
2023-02-21T08:42:39.881Z,9.74
2023-02-21T08:43:39.899Z,9.72
2023-02-21T08:44:39.875Z,9.72
2023-02-21T08:45:39.867Z,9.77
2023-02-21T08:46:39.925Z,9.72
2023-02-21T08:47:39.856Z,9.79
2023-02-21T08:48:39.862Z,9.74
2023-02-21T08:49:39.830Z,9.80
2023-02-21T08:50:39.821Z,9.86
2023-02-21T08:51:39.830Z,9.84
2023-02-21T08:52:39.815Z,9.94
2023-02-21T08:53:39.822Z,9.98
2023-02-21T08:54:39.816Z,10.09
2023-02-21T08:55:39.784Z,10.07
2023-02-21T08:56:39.862Z,10.13
2023-02-21T08:57:39.803Z,9.97
2023-02-21T08:58:39.798Z,10.04
2023-02-21T08:59:39.827Z,10.13
2023-02-21T09:00:40.811Z,10.09
2023-02-21T09:01:39.762Z,10.19
2023-02-21T09:02:39.736Z,10.13
2023-02-21T09:03:39.725Z,10.15
2023-02-21T09:04:39.761Z,10.19
2023-02-21T09:05:39.746Z,10.16
2023-02-21T09:06:39.709Z,10.30
2023-02-21T09:07:39.715Z,10.34
2023-02-21T09:08:39.715Z,10.41
2023-02-21T09:09:39.715Z,10.35
2023-02-21T09:10:39.763Z,10.42
2023-02-21T09:11:39.667Z,10.41
2023-02-21T09:12:39.669Z,10.54
2023-02-21T09:13:39.659Z,10.54
2023-02-21T09:14:39.675Z,10.51
2023-02-21T09:15:39.636Z,10.51
2023-02-21T09:16:39.671Z,10.42
2023-02-21T09:17:39.620Z,10.59
2023-02-21T09:18:39.618Z,10.60
2023-02-21T09:19:39.633Z,10.67
2023-02-21T09:20:39.596Z,10.61
2023-02-21T09:21:39.582Z,10.64
2023-02-21T09:22:40.586Z,10.68
2023-02-21T09:23:39.579Z,10.79
2023-02-21T09:24:39.593Z,10.74
2023-02-21T09:25:39.569Z,10.78
2023-02-21T09:26:39.549Z,10.76
2023-02-21T09:27:39.542Z,10.94
2023-02-21T09:28:39.543Z,10.93
2023-02-21T09:29:46.239Z,10.96
2023-02-21T09:30:41.555Z,10.90
2023-02-21T09:31:39.586Z,11.00
2023-02-21T09:32:39.553Z,10.96
2023-02-21T09:33:39.505Z,10.97
2023-02-21T09:34:39.526Z,10.79
2023-02-21T09:35:39.480Z,10.90
2023-02-21T09:36:39.476Z,10.84
2023-02-21T09:37:39.472Z,10.99
2023-02-21T09:38:39.465Z,11.00
2023-02-21T09:39:39.493Z,11.02
2023-02-21T09:40:39.457Z,11.05
2023-02-21T09:41:39.448Z,11.14
2023-02-21T09:42:39.437Z,11.05
2023-02-21T09:43:39.434Z,11.15
2023-02-21T09:44:39.452Z,11.11
2023-02-21T09:45:39.452Z,11.11
2023-02-21T09:46:39.422Z,11.02
2023-02-21T09:47:39.403Z,10.99
2023-02-21T09:48:39.403Z,11.15
2023-02-21T09:49:39.421Z,11.15
2023-02-21T09:50:39.373Z,11.33
2023-02-21T09:51:39.369Z,11.12
2023-02-21T09:52:39.354Z,11.26
2023-02-21T09:53:39.356Z,11.29
2023-02-21T09:54:39.376Z,11.26
2023-02-21T09:55:39.334Z,11.44
2023-02-21T09:56:39.370Z,11.45
2023-02-21T09:57:39.317Z,11.37
2023-02-21T09:58:39.351Z,11.47
2023-02-21T09:59:39.328Z,11.51
2023-02-21T10:00:39.291Z,11.37
2023-02-21T10:01:39.360Z,11.40
2023-02-21T10:02:39.279Z,11.40
2023-02-21T10:03:39.276Z,11.45
2023-02-21T10:04:39.338Z,11.36
2023-02-21T10:05:39.268Z,11.37
2023-02-21T10:06:39.260Z,11.45
2023-02-21T10:07:39.236Z,11.47
2023-02-21T10:08:39.268Z,11.57
2023-02-21T10:09:39.260Z,11.62
2023-02-21T10:10:39.224Z,11.68
2023-02-21T10:11:39.209Z,11.55
2023-02-21T10:12:39.196Z,11.55
2023-02-21T10:13:40.221Z,11.50
2023-02-21T10:14:39.217Z,11.51
2023-02-21T10:15:39.181Z,11.65
2023-02-21T10:16:39.178Z,11.60
2023-02-21T10:17:39.173Z,11.54
2023-02-21T10:18:39.161Z,11.47
2023-02-21T10:19:39.205Z,11.35
2023-02-21T10:20:39.151Z,11.40
2023-02-21T10:21:39.131Z,11.51
2023-02-21T10:22:39.132Z,11.47
2023-02-21T10:23:39.124Z,11.47
2023-02-21T10:24:39.144Z,11.41
2023-02-21T10:25:39.115Z,11.43
2023-02-21T10:26:39.103Z,11.44
2023-02-21T10:27:39.088Z,11.55
2023-02-21T10:28:39.098Z,11.63
2023-02-21T10:29:39.111Z,11.66
2023-02-21T10:30:39.161Z,11.69
2023-02-21T10:31:39.151Z,11.57
2023-02-21T10:32:39.049Z,11.55
2023-02-21T10:33:39.048Z,11.48
2023-02-21T10:34:39.023Z,11.45
2023-02-21T10:35:39.543Z,11.50
2023-02-21T10:36:40.026Z,11.48
2023-02-21T10:37:39.021Z,11.50
2023-02-21T10:38:38.996Z,11.57
2023-02-21T10:39:38.988Z,11.66
2023-02-21T10:40:40.008Z,11.48
2023-02-21T10:41:38.986Z,11.57
2023-02-21T10:42:38.970Z,11.57
2023-02-21T10:43:38.963Z,11.59
2023-02-21T10:44:38.959Z,11.68
2023-02-21T10:45:39.007Z,11.62
2023-02-21T10:46:38.937Z,11.63
2023-02-21T10:47:38.930Z,11.69
2023-02-21T10:48:38.918Z,11.75
2023-02-21T10:49:39.937Z,11.69
2023-02-21T10:50:38.927Z,11.73
2023-02-21T10:51:39.922Z,11.83
2023-02-21T10:52:38.892Z,11.88
2023-02-21T10:53:38.889Z,11.77
2023-02-21T10:54:38.885Z,11.73
2023-02-21T10:55:38.905Z,11.75
2023-02-21T10:56:38.861Z,11.77
2023-02-21T10:57:38.860Z,11.95
2023-02-21T10:58:38.862Z,11.87
2023-02-21T10:59:38.840Z,11.88
2023-02-21T11:00:38.865Z,11.88
2023-02-21T11:01:38.850Z,11.88
2023-02-21T11:02:38.915Z,11.78
2023-02-21T11:03:38.807Z,11.87
2023-02-21T11:04:38.799Z,11.80
2023-02-21T11:05:38.817Z,11.80
2023-02-21T11:06:38.793Z,11.81
2023-02-21T11:07:38.774Z,11.87
2023-02-21T11:08:38.769Z,11.90
2023-02-21T11:09:39.570Z,11.86
2023-02-21T11:10:38.793Z,11.81
2023-02-21T11:11:38.765Z,11.88
2023-02-21T11:12:38.776Z,11.77
2023-02-21T11:13:38.728Z,11.99
2023-02-21T11:14:38.726Z,11.84
2023-02-21T11:15:38.790Z,11.87
2023-02-21T11:16:38.712Z,11.86
2023-02-21T11:17:38.702Z,11.86
2023-02-21T11:18:38.763Z,11.88
2023-02-21T11:19:38.695Z,11.95
2023-02-21T11:20:38.721Z,11.90
2023-02-21T11:21:38.673Z,11.97
2023-02-21T11:22:38.668Z,12.00
2023-02-21T11:23:38.655Z,11.97
2023-02-21T11:24:38.656Z,11.94
2023-02-21T11:25:38.668Z,12.03
2023-02-21T11:26:38.638Z,12.09
2023-02-21T11:27:38.625Z,12.03
2023-02-21T11:28:38.615Z,11.99
2023-02-21T11:29:38.613Z,12.02
2023-02-21T11:30:38.673Z,12.12
2023-02-21T11:31:38.740Z,12.17
2023-02-21T11:32:38.590Z,12.25
2023-02-21T11:33:38.587Z,12.29
2023-02-21T11:34:38.574Z,12.53
2023-02-21T11:35:38.676Z,12.65
2023-02-21T11:36:38.549Z,12.73
2023-02-21T11:37:38.549Z,12.75
2023-02-21T11:38:38.579Z,12.82
2023-02-21T11:39:38.541Z,12.82
2023-02-21T11:40:38.538Z,12.79
2023-02-21T11:41:38.578Z,12.80
2023-02-21T11:42:38.523Z,12.83
2023-02-21T11:43:38.510Z,12.82
2023-02-21T11:44:38.505Z,13.01
2023-02-21T11:45:38.488Z,13.00
2023-02-21T11:46:38.540Z,13.03
2023-02-21T11:47:38.494Z,13.05
2023-02-21T11:48:38.469Z,13.12
2023-02-21T11:49:38.463Z,13.05
2023-02-21T11:50:38.453Z,12.95
2023-02-21T11:51:38.535Z,13.08
2023-02-21T11:52:38.452Z,13.12
2023-02-21T11:53:38.432Z,13.23
2023-02-21T11:54:38.443Z,13.22
2023-02-21T11:55:38.413Z,13.22
2023-02-21T11:56:38.447Z,13.27
2023-02-21T11:57:38.404Z,13.35
2023-02-21T11:58:38.390Z,13.27
2023-02-21T11:59:38.387Z,13.39
2023-02-21T12:00:39.971Z,13.44
2023-02-21T12:01:39.408Z,13.44
2023-02-21T12:02:38.391Z,13.42
2023-02-21T12:03:38.368Z,13.44
2023-02-21T12:04:38.347Z,13.46
2023-02-21T12:05:38.371Z,13.22
2023-02-21T12:06:38.354Z,13.30
2023-02-21T12:07:38.324Z,13.33
2023-02-21T12:08:38.328Z,13.22
2023-02-21T12:09:38.315Z,13.15
2023-02-21T12:10:38.345Z,13.16
2023-02-21T12:11:38.326Z,13.15
2023-02-21T12:12:38.283Z,13.15
2023-02-21T12:13:38.352Z,13.19
2023-02-21T12:14:38.293Z,13.25
2023-02-21T12:15:38.303Z,13.30
2023-02-21T12:16:38.279Z,13.31
2023-02-21T12:17:38.243Z,13.33
2023-02-21T12:18:38.256Z,13.33
2023-02-21T12:19:38.232Z,13.27
2023-02-21T12:20:38.222Z,13.27
2023-02-21T12:21:38.235Z,13.23
2023-02-21T12:22:38.206Z,13.22
2023-02-21T12:23:38.204Z,13.19
2023-02-21T12:24:38.189Z,12.97
2023-02-21T12:25:38.202Z,12.98
2023-02-21T12:26:38.197Z,13.08
2023-02-21T12:27:38.169Z,13.08
2023-02-21T12:28:38.156Z,13.12
2023-02-21T12:29:38.151Z,13.11
2023-02-21T12:30:38.204Z,13.05
2023-02-21T12:31:38.343Z,13.09
2023-02-21T12:32:38.131Z,13.11
2023-02-21T12:33:38.127Z,13.08
2023-02-21T12:34:38.119Z,13.08
2023-02-21T12:35:38.159Z,13.04
2023-02-21T12:36:38.127Z,13.08
2023-02-21T12:37:38.115Z,13.04
2023-02-21T12:38:39.541Z,13.01
2023-02-21T12:39:39.080Z,12.94
2023-02-21T12:40:38.075Z,12.94
2023-02-21T12:41:38.099Z,12.97
2023-02-21T12:42:38.063Z,13.00
2023-02-21T12:43:38.062Z,13.09
2023-02-21T12:44:38.049Z,13.01
2023-02-21T12:45:38.052Z,13.03
2023-02-21T12:46:38.135Z,12.86
2023-02-21T12:47:38.020Z,12.86
2023-02-21T12:48:38.013Z,12.80
2023-02-21T12:49:38.008Z,12.78
2023-02-21T12:50:38.006Z,12.82
2023-02-21T12:51:38.008Z,12.86
2023-02-21T12:52:37.981Z,12.76
2023-02-21T12:53:38.006Z,12.76
2023-02-21T12:54:37.976Z,12.83
2023-02-21T12:55:40.120Z,12.85
2023-02-21T12:56:38.004Z,12.70
2023-02-21T12:57:37.935Z,12.80
2023-02-21T12:58:37.940Z,12.64
2023-02-21T12:59:37.971Z,12.72
2023-02-21T13:00:37.931Z,12.64
2023-02-21T13:01:37.930Z,12.67
2023-02-21T13:02:37.998Z,12.78
2023-02-21T13:03:38.039Z,12.75
2023-02-21T13:04:37.902Z,12.78
2023-02-21T13:05:37.881Z,12.83
2023-02-21T13:06:37.881Z,12.82
2023-02-21T13:07:37.904Z,12.82
2023-02-21T13:08:37.868Z,12.75
2023-02-21T13:09:37.873Z,12.80
2023-02-21T13:10:37.853Z,12.90